createdAt,value
2022-12-05T00:00:09.825Z,24.00
2022-12-05T00:01:25.463Z,23.23
2022-12-05T00:02:27.314Z,21.17
2022-12-05T00:03:29.211Z,24.80
2022-12-05T00:04:30.957Z,25.80
2022-12-05T00:05:32.644Z,25.77
2022-12-05T00:06:35.671Z,20.40
2022-12-05T00:07:37.782Z,21.95
2022-12-05T00:08:39.483Z,23.08
2022-12-05T00:09:41.102Z,23.88
2022-12-05T00:10:43.155Z,20.52
2022-12-05T00:11:45.567Z,24.27
2022-12-05T00:12:47.369Z,23.20
2022-12-05T00:13:50.086Z,20.58
2022-12-05T00:14:51.743Z,23.75
2022-12-05T00:15:53.347Z,23.33
2022-12-05T00:16:55.009Z,24.58
2022-12-05T00:17:56.647Z,23.65
2022-12-05T00:19:02.778Z,24.85
2022-12-05T00:20:05.216Z,30.20
2022-12-05T00:21:07.898Z,21.60
2022-12-05T00:22:09.486Z,22.40
2022-12-05T00:23:11.199Z,22.45
2022-12-05T00:24:15.757Z,21.13
2022-12-05T00:25:17.456Z,23.10
2022-12-05T00:26:19.889Z,23.60
2022-12-05T00:27:21.483Z,19.23
2022-12-05T00:28:23.179Z,20.55
2022-12-05T00:29:24.803Z,21.92
2022-12-05T00:30:26.404Z,20.50
2022-12-05T00:31:28.934Z,21.17
2022-12-05T00:32:30.888Z,20.88
2022-12-05T00:33:32.683Z,21.58
2022-12-05T00:34:34.351Z,23.33
2022-12-05T00:35:36.180Z,21.58
2022-12-05T00:36:38.262Z,19.00
2022-12-05T00:37:39.862Z,25.00
2022-12-05T00:38:42.251Z,21.27
2022-12-05T00:39:43.934Z,21.83
2022-12-05T00:40:45.539Z,20.95
2022-12-05T00:41:47.175Z,23.33
2022-12-05T00:42:52.288Z,21.55
2022-12-05T00:43:55.083Z,23.33
2022-12-05T00:44:56.744Z,21.15
2022-12-05T00:46:02.689Z,21.90
2022-12-05T00:47:04.372Z,21.27
2022-12-05T00:48:06.075Z,23.38
2022-12-05T00:49:08.342Z,26.58
2022-12-05T00:50:10.078Z,23.10
2022-12-05T00:51:14.380Z,20.85
2022-12-05T00:52:16.037Z,17.08
2022-12-05T00:53:17.661Z,25.98
2022-12-05T00:54:19.345Z,19.55
2022-12-05T00:55:20.963Z,22.02
2022-12-05T00:56:24.595Z,19.95
2022-12-05T00:57:26.273Z,19.75
2022-12-05T00:58:27.874Z,20.85
2022-12-05T00:59:29.455Z,21.63
2022-12-05T01:00:31.153Z,23.17
2022-12-05T01:01:35.978Z,21.88
2022-12-05T01:02:37.720Z,20.15
2022-12-05T01:03:40.322Z,24.20
2022-12-05T01:04:41.919Z,19.55
2022-12-05T01:05:43.543Z,21.20
2022-12-05T01:06:45.975Z,24.80
2022-12-05T01:07:47.612Z,19.65
2022-12-05T01:08:49.874Z,21.25
2022-12-05T01:09:51.600Z,22.13
2022-12-05T01:10:57.213Z,20.15
2022-12-05T01:11:58.809Z,20.45
2022-12-05T01:13:00.413Z,22.65
2022-12-05T01:14:02.324Z,19.88
2022-12-05T01:15:04.731Z,24.58
2022-12-05T01:16:06.917Z,21.67
2022-12-05T01:17:08.719Z,23.17
2022-12-05T01:18:10.510Z,18.48
2022-12-05T01:19:16.611Z,22.35
2022-12-05T01:20:18.272Z,19.08
2022-12-05T01:21:20.919Z,19.60
2022-12-05T01:22:22.519Z,27.65
2022-12-05T01:23:24.254Z,20.80
2022-12-05T01:24:27.520Z,18.83
2022-12-05T01:25:29.105Z,19.40
2022-12-05T01:26:30.733Z,20.42
2022-12-05T01:27:32.390Z,26.73
2022-12-05T01:28:35.076Z,22.15
2022-12-05T01:29:36.810Z,20.60
2022-12-05T01:30:39.925Z,20.92
2022-12-05T01:31:42.269Z,21.52
2022-12-05T01:32:43.942Z,20.48
2022-12-05T01:33:45.593Z,24.05
2022-12-05T01:34:47.382Z,23.05
2022-12-05T01:35:49.103Z,22.38
2022-12-05T01:36:50.772Z,20.90
2022-12-05T01:37:52.408Z,24.23
2022-12-05T01:38:54.196Z,22.70
2022-12-05T01:39:56.085Z,19.27
2022-12-05T01:41:04.327Z,21.58
2022-12-05T01:42:06.106Z,21.20
2022-12-05T01:43:16.727Z,28.63
2022-12-05T01:44:18.341Z,19.30
2022-12-05T01:45:33.864Z,22.77
2022-12-05T01:46:37.916Z,25.50
2022-12-05T01:47:39.967Z,20.00
2022-12-05T01:48:42.452Z,22.13
2022-12-05T01:49:44.627Z,19.85
2022-12-05T01:50:48.512Z,22.80
2022-12-05T01:51:53.804Z,23.17
2022-12-05T01:52:55.497Z,21.77
2022-12-05T01:53:57.122Z,22.02
2022-12-05T01:55:04.650Z,23.00
2022-12-05T01:56:07.000Z,22.67
2022-12-05T01:57:11.664Z,20.90
2022-12-05T01:58:13.569Z,22.60
2022-12-05T01:59:16.828Z,17.98
2022-12-05T02:00:20.148Z,23.00
2022-12-05T02:01:21.931Z,24.75
2022-12-05T02:02:23.994Z,17.98
2022-12-05T02:03:25.824Z,22.05
2022-12-05T02:04:28.070Z,25.67
2022-12-05T02:05:32.370Z,18.83
2022-12-05T02:06:35.127Z,19.20
2022-12-05T02:07:40.689Z,22.33
2022-12-05T02:08:43.167Z,21.13
2022-12-05T02:09:45.651Z,23.63
2022-12-05T02:10:53.085Z,18.23
2022-12-05T02:11:58.214Z,17.02
2022-12-05T02:13:11.343Z,21.25
2022-12-05T02:14:25.480Z,19.23
2022-12-05T02:15:56.723Z,24.20
2022-12-05T02:17:15.884Z,16.88
2022-12-05T02:18:52.674Z,18.52
2022-12-05T02:20:20.863Z,21.25
2022-12-05T02:21:50.235Z,20.20
2022-12-05T02:23:16.659Z,20.52
2022-12-05T02:24:21.426Z,19.30
2022-12-05T02:25:42.218Z,23.05
2022-12-05T02:27:04.027Z,19.38
2022-12-05T02:28:08.269Z,19.73
2022-12-05T02:29:37.138Z,20.45
2022-12-05T02:30:51.361Z,24.17
2022-12-05T02:32:26.526Z,22.13
2022-12-05T02:33:37.023Z,21.52
2022-12-05T02:34:45.012Z,20.45
2022-12-05T02:35:52.439Z,23.55
2022-12-05T02:37:05.707Z,19.48
2022-12-05T02:38:32.355Z,17.08
2022-12-05T02:40:01.127Z,21.75
2022-12-05T02:41:24.642Z,21.52
2022-12-05T02:42:52.009Z,19.88
2022-12-05T02:44:04.722Z,25.33
2022-12-05T02:45:10.132Z,17.85
2022-12-05T02:46:17.365Z,23.92
2022-12-05T02:47:23.188Z,21.55
2022-12-05T02:48:28.559Z,16.98
2022-12-05T02:49:33.361Z,20.52
2022-12-05T02:50:38.898Z,21.52
2022-12-05T02:51:48.139Z,21.38
2022-12-05T02:52:53.211Z,18.52
2022-12-05T02:53:58.216Z,24.65
2022-12-05T02:55:00.308Z,20.25
2022-12-05T02:56:02.805Z,18.73
2022-12-05T02:57:05.650Z,19.95
2022-12-05T02:58:19.442Z,23.73
2022-12-05T02:59:23.509Z,21.25
2022-12-05T03:00:25.466Z,17.25
2022-12-05T03:01:30.580Z,21.08
2022-12-05T03:02:34.104Z,19.60
2022-12-05T03:03:36.025Z,18.33
2022-12-05T03:04:37.821Z,20.67
2022-12-05T03:05:51.060Z,19.40
2022-12-05T03:07:03.344Z,21.88
2022-12-05T03:08:08.481Z,21.67
2022-12-05T03:09:15.194Z,17.35
2022-12-05T03:10:20.286Z,17.75
2022-12-05T03:11:22.367Z,22.70
2022-12-05T03:12:39.734Z,18.00
2022-12-05T03:13:50.807Z,18.85
2022-12-05T03:15:05.226Z,18.27
2022-12-05T03:16:16.551Z,17.65
2022-12-05T03:17:24.558Z,16.80
2022-12-05T03:18:58.387Z,18.33
2022-12-05T03:20:11.624Z,18.67
2022-12-05T03:21:33.986Z,19.45
2022-12-05T03:22:44.996Z,22.05
2022-12-05T03:23:52.966Z,16.42
2022-12-05T03:24:55.035Z,16.10
2022-12-05T03:26:18.332Z,18.92
2022-12-05T03:27:34.319Z,17.10
2022-12-05T03:28:54.210Z,18.17
2022-12-05T03:30:07.023Z,18.73
2022-12-05T03:31:13.218Z,19.67
2022-12-05T03:32:45.600Z,17.15
2022-12-05T03:33:50.567Z,15.80
2022-12-05T03:35:16.275Z,17.30
2022-12-05T03:36:28.273Z,18.85
2022-12-05T03:37:45.255Z,18.25
2022-12-05T03:39:01.112Z,16.63
2022-12-05T03:40:23.709Z,20.58
2022-12-05T03:41:51.661Z,17.83
2022-12-05T03:43:12.732Z,17.98
2022-12-05T03:44:54.747Z,19.08
2022-12-05T03:46:04.335Z,19.17
2022-12-05T03:47:20.747Z,19.42
2022-12-05T03:48:49.266Z,15.80
2022-12-05T03:49:56.539Z,15.88
2022-12-05T03:51:01.035Z,16.65
2022-12-05T03:52:14.182Z,16.90
2022-12-05T03:53:25.959Z,16.67
2022-12-05T03:54:32.267Z,25.10
2022-12-05T03:55:37.228Z,18.48
2022-12-05T03:56:47.874Z,16.77
2022-12-05T03:58:01.410Z,20.83
2022-12-05T03:59:20.136Z,17.88
2022-12-05T04:00:24.158Z,18.52
2022-12-05T04:01:30.593Z,17.48
2022-12-05T04:02:45.353Z,15.85
2022-12-05T04:03:52.516Z,16.83
2022-12-05T04:05:01.621Z,18.50
2022-12-05T04:06:06.073Z,20.63
2022-12-05T04:07:09.393Z,15.50
2022-12-05T04:08:17.509Z,15.68
2022-12-05T04:09:28.385Z,15.38
2022-12-05T04:10:33.221Z,15.10
2022-12-05T04:11:40.032Z,16.52
2022-12-05T04:12:43.780Z,18.95
2022-12-05T04:13:59.098Z,17.95
2022-12-05T04:15:08.111Z,22.48
2022-12-05T04:16:32.491Z,20.02
2022-12-05T04:17:51.962Z,16.15
2022-12-05T04:19:17.536Z,15.73
2022-12-05T04:20:59.748Z,14.98
2022-12-05T04:22:01.459Z,18.08
2022-12-05T04:23:04.055Z,15.70
2022-12-05T04:24:50.952Z,16.25
2022-12-05T04:25:55.358Z,15.45
2022-12-05T04:27:22.369Z,19.00
2022-12-05T04:28:33.210Z,15.18
2022-12-05T04:29:42.306Z,17.40
2022-12-05T04:30:56.200Z,17.65
2022-12-05T04:32:04.436Z,17.35
2022-12-05T04:33:23.251Z,13.82
2022-12-05T04:34:29.160Z,15.43
2022-12-05T04:35:54.441Z,13.77
2022-12-05T04:37:12.682Z,13.07
2022-12-05T04:38:29.731Z,13.68
2022-12-05T04:39:43.084Z,13.70
2022-12-05T04:40:55.989Z,14.63
2022-12-05T04:42:07.785Z,12.57
2022-12-05T04:43:10.692Z,14.93
2022-12-05T04:44:16.264Z,13.48
2022-12-05T04:45:21.140Z,12.95
2022-12-05T04:46:24.391Z,12.50
2022-12-05T04:47:31.283Z,13.40
2022-12-05T04:48:37.108Z,14.57
2022-12-05T04:49:41.504Z,16.77
2022-12-05T04:50:46.569Z,12.50
2022-12-05T04:51:53.132Z,12.63
2022-12-05T04:52:57.958Z,13.95
2022-12-05T04:54:10.160Z,12.63
2022-12-05T04:55:25.704Z,12.73
2022-12-05T04:56:31.593Z,10.50
2022-12-05T04:58:06.410Z,14.48
2022-12-05T04:59:08.340Z,13.48
2022-12-05T05:00:10.641Z,10.52
2022-12-05T05:01:19.654Z,16.40
2022-12-05T05:02:37.321Z,12.20
2022-12-05T05:03:45.417Z,13.07
2022-12-05T05:04:52.834Z,17.58
2022-12-05T05:05:56.786Z,14.75
2022-12-05T05:06:58.414Z,14.82
2022-12-05T05:08:00.109Z,17.30
2022-12-05T05:09:01.825Z,17.50
2022-12-05T05:10:03.683Z,14.85
2022-12-05T05:11:16.097Z,13.20
2022-12-05T05:12:19.302Z,15.05
2022-12-05T05:13:21.118Z,14.48
2022-12-05T05:14:22.716Z,14.07
2022-12-05T05:15:24.465Z,15.20
2022-12-05T05:16:44.778Z,11.93
2022-12-05T05:17:46.375Z,14.55
2022-12-05T05:18:49.570Z,12.18
2022-12-05T05:19:51.145Z,11.02
2022-12-05T05:20:52.995Z,14.32
2022-12-05T05:21:54.662Z,10.60
2022-12-05T05:22:58.400Z,14.45
2022-12-05T05:24:00.519Z,13.35
2022-12-05T05:25:02.135Z,11.90
2022-12-05T05:26:03.811Z,13.15
2022-12-05T05:27:05.418Z,13.23
2022-12-05T05:28:07.022Z,13.48
2022-12-05T05:29:09.697Z,11.90
2022-12-05T05:30:11.588Z,14.20
2022-12-05T05:31:13.697Z,17.85
2022-12-05T05:32:15.429Z,11.85
2022-12-05T05:33:17.066Z,12.27
2022-12-05T05:34:18.713Z,13.07
2022-12-05T05:35:21.454Z,12.20
2022-12-05T05:36:25.739Z,13.63
2022-12-05T05:37:27.422Z,13.68
2022-12-05T05:38:29.033Z,13.63
2022-12-05T05:39:30.664Z,11.98
2022-12-05T05:40:36.479Z,12.02
2022-12-05T05:41:38.093Z,16.35
2022-12-05T05:42:48.219Z,15.15
2022-12-05T05:43:50.929Z,16.45
2022-12-05T05:44:52.548Z,12.63
2022-12-05T05:45:54.129Z,11.63
2022-12-05T05:46:55.773Z,11.13
2022-12-05T05:47:57.764Z,19.00
2022-12-05T05:48:59.764Z,14.27
2022-12-05T05:52:23.366Z,13.98
2022-12-05T05:53:25.024Z,17.08
2022-12-05T05:54:26.620Z,14.13
2022-12-05T05:55:28.274Z,15.10
2022-12-05T05:56:30.137Z,12.13
2022-12-05T05:57:32.105Z,14.45
2022-12-05T05:58:34.390Z,12.70
2022-12-05T05:59:35.970Z,15.43
2022-12-05T06:00:37.550Z,11.68
2022-12-05T06:01:39.206Z,11.43
2022-12-05T06:02:41.069Z,12.88
2022-12-05T06:03:43.115Z,12.63
2022-12-05T06:04:44.828Z,12.68
2022-12-05T06:05:57.513Z,11.48
2022-12-05T06:06:59.126Z,16.65
2022-12-05T06:08:00.827Z,13.95
2022-12-05T06:09:02.695Z,13.88
2022-12-05T06:10:05.050Z,13.05
2022-12-05T06:11:12.485Z,14.35
2022-12-05T06:12:14.105Z,10.20
2022-12-05T06:13:15.730Z,12.57
2022-12-05T06:14:17.320Z,10.90
2022-12-05T06:15:18.915Z,23.48
2022-12-05T06:16:23.862Z,12.30
2022-12-05T06:17:25.468Z,13.13
2022-12-05T06:18:27.282Z,11.23
2022-12-05T06:19:28.897Z,9.43
2022-12-05T06:20:30.530Z,11.40
2022-12-05T06:21:32.201Z,11.23
2022-12-05T06:22:33.907Z,10.63
2022-12-05T06:23:36.470Z,10.90
2022-12-05T06:24:38.520Z,11.63
2022-12-05T06:25:40.106Z,10.63
2022-12-05T06:26:41.932Z,9.80
2022-12-05T06:27:43.512Z,13.70
2022-12-05T06:28:45.760Z,11.15
2022-12-05T06:29:47.360Z,12.70
2022-12-05T06:30:49.015Z,10.40
2022-12-05T06:31:50.708Z,11.77
2022-12-05T06:32:52.379Z,12.00
2022-12-05T06:33:54.112Z,9.15
2022-12-05T06:34:55.885Z,12.27
2022-12-05T06:36:12.586Z,12.00
2022-12-05T06:37:14.386Z,11.45
2022-12-05T06:38:15.968Z,11.23
2022-12-05T06:39:17.832Z,12.10
2022-12-05T06:40:19.473Z,12.77
2022-12-05T06:41:21.663Z,11.88
2022-12-05T06:42:23.255Z,12.55
2022-12-05T06:43:24.895Z,10.73
2022-12-05T06:44:27.069Z,9.85
2022-12-05T06:45:28.739Z,9.75
2022-12-05T06:46:30.927Z,10.65
2022-12-05T06:47:32.558Z,10.85
2022-12-05T06:48:34.301Z,10.65
2022-12-05T06:49:38.114Z,11.50
2022-12-05T06:50:40.057Z,10.35
2022-12-05T06:51:41.648Z,11.38
2022-12-05T06:52:43.278Z,11.35
2022-12-05T06:53:45.150Z,12.20
2022-12-05T06:54:46.911Z,12.63
2022-12-05T06:56:03.456Z,9.40
2022-12-05T06:57:05.153Z,12.77
2022-12-05T06:58:06.754Z,9.63
2022-12-05T06:59:08.472Z,12.68
2022-12-05T07:00:29.383Z,11.48
2022-12-05T07:01:43.685Z,10.38
2022-12-05T07:02:45.601Z,13.88
2022-12-05T07:03:49.523Z,10.05
2022-12-05T07:04:51.143Z,15.35
2022-12-05T07:05:52.870Z,12.25
2022-12-05T07:06:56.300Z,10.75
2022-12-05T07:07:57.993Z,9.30
2022-12-05T07:08:59.785Z,9.25
2022-12-05T07:10:01.444Z,9.20
2022-12-05T07:11:03.888Z,10.57
2022-12-05T07:12:05.682Z,7.90
2022-12-05T07:13:08.589Z,9.57
2022-12-05T07:14:24.894Z,10.20
2022-12-05T07:15:33.197Z,9.90
2022-12-05T07:16:34.886Z,11.27
2022-12-05T07:17:38.908Z,8.20
2022-12-05T07:18:40.545Z,9.82
2022-12-05T07:19:42.174Z,12.02
2022-12-05T07:21:10.556Z,9.05
2022-12-05T07:22:09.366Z,13.52
2022-12-05T07:23:13.700Z,10.35
2022-12-05T07:24:15.365Z,9.00
2022-12-05T07:25:17.053Z,8.63
2022-12-05T07:26:22.193Z,10.23
2022-12-05T07:27:27.662Z,9.88
2022-12-05T07:28:29.730Z,8.25
2022-12-05T07:29:31.451Z,12.15
2022-12-05T07:30:33.312Z,10.07
2022-12-05T07:31:36.563Z,8.85
2022-12-05T07:32:38.249Z,11.15
2022-12-05T07:33:39.893Z,11.13
2022-12-05T07:34:42.188Z,15.10
2022-12-05T07:35:43.810Z,16.10
2022-12-05T07:36:45.391Z,12.18
2022-12-05T07:37:47.219Z,19.58
2022-12-05T07:38:49.328Z,14.65
2022-12-05T07:39:52.855Z,13.52
2022-12-05T07:40:54.475Z,13.63
2022-12-05T07:41:56.061Z,10.63
2022-12-05T07:42:57.683Z,11.45
2022-12-05T07:44:00.331Z,11.40
2022-12-05T07:45:01.993Z,9.77
2022-12-05T07:46:06.133Z,10.88
2022-12-05T07:47:07.776Z,13.57
2022-12-05T07:48:11.427Z,12.68
2022-12-05T07:49:17.638Z,9.27
2022-12-05T07:50:19.252Z,11.85
2022-12-05T07:51:21.408Z,8.45
2022-12-05T07:52:23.032Z,9.57
2022-12-05T07:53:24.824Z,8.38
2022-12-05T07:54:26.450Z,9.63
2022-12-05T07:55:28.060Z,9.07
2022-12-05T07:56:29.720Z,10.20
2022-12-05T07:57:31.627Z,9.38
2022-12-05T07:58:34.162Z,10.32
2022-12-05T07:59:35.946Z,8.82
2022-12-05T08:00:37.587Z,9.85
2022-12-05T08:01:39.278Z,10.05
2022-12-05T08:02:41.146Z,10.23
2022-12-05T08:03:43.838Z,9.10
2022-12-05T08:04:45.643Z,9.63
2022-12-05T08:05:47.305Z,9.20
2022-12-05T08:06:48.902Z,11.90
2022-12-05T08:07:50.534Z,10.75
2022-12-05T08:08:52.928Z,12.57
2022-12-05T08:09:54.503Z,9.98
2022-12-05T08:10:56.326Z,15.07
2022-12-05T08:11:58.277Z,11.10
2022-12-05T08:12:59.845Z,9.38
2022-12-05T08:14:02.663Z,10.23
2022-12-05T08:15:05.212Z,8.95
2022-12-05T08:16:10.319Z,13.13
2022-12-05T08:17:12.036Z,12.00
2022-12-05T08:18:13.683Z,9.02
2022-12-05T08:19:17.028Z,8.88
2022-12-05T08:20:18.740Z,8.05
2022-12-05T08:21:20.423Z,7.90
2022-12-05T08:22:22.016Z,9.77
2022-12-05T08:23:23.677Z,13.10
2022-12-05T08:24:25.362Z,8.57
2022-12-05T08:25:27.025Z,10.35
2022-12-05T08:26:30.873Z,10.25
2022-12-05T08:27:32.531Z,8.93
2022-12-05T08:28:34.265Z,7.40
2022-12-05T08:29:35.990Z,8.07
2022-12-05T08:30:37.761Z,8.02
2022-12-05T08:31:42.829Z,10.27
2022-12-05T08:32:44.520Z,8.45
2022-12-05T08:33:46.233Z,8.98
2022-12-05T08:34:47.847Z,8.75
2022-12-05T08:35:49.554Z,9.25
2022-12-05T08:36:51.151Z,8.02
2022-12-05T08:37:53.017Z,11.45
2022-12-05T08:39:04.292Z,13.32
2022-12-05T08:40:06.434Z,8.48
2022-12-05T08:41:11.478Z,7.30
2022-12-05T08:42:13.081Z,8.60
2022-12-05T08:43:14.723Z,7.15
2022-12-05T08:44:17.090Z,18.23
2022-12-05T08:45:18.759Z,15.60
2022-12-05T08:46:20.564Z,9.18
2022-12-05T08:47:22.255Z,7.88
2022-12-05T08:48:28.965Z,9.95
2022-12-05T08:49:31.187Z,7.20
2022-12-05T08:50:32.843Z,8.95
2022-12-05T08:51:34.621Z,10.35
2022-12-05T08:52:36.212Z,10.90
2022-12-05T08:53:44.147Z,9.05
2022-12-05T08:54:46.390Z,6.53
2022-12-05T08:55:48.113Z,7.68
2022-12-05T08:56:53.068Z,10.57
2022-12-05T08:57:54.660Z,9.85
2022-12-05T08:59:04.552Z,7.88
2022-12-05T09:00:07.773Z,9.73
2022-12-05T09:01:12.123Z,10.18
2022-12-05T09:02:13.967Z,7.90
2022-12-05T09:03:15.715Z,6.72
2022-12-05T09:04:17.314Z,9.20
2022-12-05T09:05:28.339Z,6.65
2022-12-05T09:06:32.144Z,5.60
2022-12-05T09:07:33.800Z,6.85
2022-12-05T09:08:35.726Z,5.82
2022-12-05T09:09:37.587Z,5.82
2022-12-05T09:10:39.225Z,8.60
2022-12-05T09:11:46.947Z,8.57
2022-12-05T09:12:50.447Z,6.32
2022-12-05T09:13:53.709Z,6.82
2022-12-05T09:14:55.521Z,8.80
2022-12-05T09:15:57.275Z,5.40
2022-12-05T09:17:00.312Z,12.98
2022-12-05T09:18:01.902Z,9.50
2022-12-05T09:19:03.582Z,6.88
2022-12-05T09:20:08.948Z,6.10
2022-12-05T09:21:16.585Z,6.63
2022-12-05T09:22:18.287Z,6.00
2022-12-05T09:23:19.876Z,7.65
2022-12-05T09:24:21.463Z,8.65
2022-12-05T09:25:23.062Z,9.20
2022-12-05T09:26:25.955Z,6.10
2022-12-05T09:27:30.456Z,8.65
2022-12-05T09:28:33.880Z,8.32
2022-12-05T09:29:35.587Z,9.65
2022-12-05T09:30:37.346Z,7.20
2022-12-05T09:31:39.109Z,10.20
2022-12-05T09:32:40.857Z,6.95
2022-12-05T09:33:42.751Z,5.22
2022-12-05T09:34:44.415Z,17.10
2022-12-05T09:35:46.066Z,8.80
2022-12-05T09:36:55.659Z,5.97
2022-12-05T09:38:03.121Z,13.40
2022-12-05T09:39:06.253Z,8.68
2022-12-05T09:40:14.627Z,6.15
2022-12-05T09:41:48.420Z,6.00
2022-12-05T09:43:05.356Z,7.95
2022-12-05T09:44:14.925Z,7.78
2022-12-05T09:45:25.513Z,12.20
2022-12-05T09:46:41.330Z,7.95
2022-12-05T09:48:08.917Z,7.20
2022-12-05T09:49:13.551Z,9.77
2022-12-05T09:50:26.530Z,13.27
2022-12-05T09:51:28.275Z,16.83
2022-12-05T09:52:34.908Z,8.60
2022-12-05T09:53:40.379Z,12.40
2022-12-05T09:54:41.987Z,9.80
2022-12-05T09:55:47.195Z,13.98
2022-12-05T09:56:51.315Z,9.68
2022-12-05T09:57:58.408Z,6.15
2022-12-05T09:59:02.986Z,6.85
2022-12-05T10:00:07.410Z,13.15
2022-12-05T10:01:27.903Z,9.30
2022-12-05T10:02:40.256Z,8.93
2022-12-05T10:03:46.926Z,14.45
2022-12-05T10:05:04.520Z,17.73
2022-12-05T10:06:16.332Z,25.70
2022-12-05T10:07:37.094Z,17.00
2022-12-05T10:09:13.761Z,13.55
2022-12-05T10:10:59.857Z,11.50
2022-12-05T10:12:14.802Z,12.40
2022-12-05T10:13:28.865Z,13.07
2022-12-05T10:14:52.579Z,14.70
2022-12-05T10:15:59.353Z,21.70
2022-12-05T10:17:15.391Z,19.20
2022-12-05T10:18:38.756Z,19.73
2022-12-05T10:19:46.861Z,18.83
2022-12-05T10:20:57.891Z,18.83
2022-12-05T10:22:20.244Z,22.13
2022-12-05T10:23:56.134Z,17.30
2022-12-05T10:24:57.247Z,24.98
2022-12-05T10:26:03.711Z,19.23
2022-12-05T10:27:13.387Z,19.23
2022-12-05T10:28:21.060Z,21.00
2022-12-05T10:29:28.021Z,18.42
2022-12-05T10:30:36.001Z,18.92
2022-12-05T10:31:40.402Z,15.45
2022-12-05T10:32:56.399Z,10.27
2022-12-05T10:34:30.782Z,13.90
2022-12-05T10:35:37.956Z,10.60
2022-12-05T10:36:39.921Z,9.32
2022-12-05T10:37:46.567Z,10.10
2022-12-05T10:38:50.149Z,15.15
2022-12-05T10:39:52.556Z,19.50
2022-12-05T10:40:58.428Z,12.75
2022-12-05T10:42:00.304Z,12.48
2022-12-05T10:43:02.173Z,17.98
2022-12-05T10:44:05.664Z,12.07
2022-12-05T10:45:14.431Z,9.05
2022-12-05T10:46:17.591Z,10.02
2022-12-05T10:47:19.449Z,10.32
2022-12-05T10:48:22.259Z,16.42
2022-12-05T10:49:24.423Z,9.65
2022-12-05T10:50:33.721Z,8.57
2022-12-05T10:51:37.712Z,10.70
2022-12-05T10:52:39.639Z,13.13
2022-12-05T10:53:49.550Z,18.58
2022-12-05T10:55:18.391Z,13.90
2022-12-05T10:56:41.370Z,14.48
2022-12-05T10:57:42.984Z,26.52
2022-12-05T10:58:56.593Z,17.40
2022-12-05T11:00:11.586Z,15.27
2022-12-05T11:01:15.906Z,16.55
2022-12-05T11:02:24.802Z,11.70
2022-12-05T11:03:31.013Z,24.75
2022-12-05T11:04:44.275Z,18.83
2022-12-05T11:05:50.072Z,11.20
2022-12-05T11:06:55.308Z,19.63
2022-12-05T11:07:59.017Z,8.88
2022-12-05T11:09:21.088Z,20.00
2022-12-05T11:10:37.799Z,18.95
2022-12-05T11:11:39.549Z,20.15
2022-12-05T11:12:41.290Z,9.43
2022-12-05T11:13:53.999Z,9.32
2022-12-05T11:15:11.684Z,10.45
2022-12-05T11:16:25.103Z,15.60
2022-12-05T11:17:36.872Z,22.88
2022-12-05T11:18:41.325Z,13.63
2022-12-05T11:19:42.961Z,12.70
2022-12-05T11:20:44.655Z,13.60
2022-12-05T11:21:46.305Z,10.13
2022-12-05T11:22:53.528Z,9.77
2022-12-05T11:23:55.323Z,12.00
2022-12-05T11:24:57.199Z,17.50
2022-12-05T11:25:59.320Z,23.70
2022-12-05T11:27:15.983Z,14.10
2022-12-05T11:28:17.589Z,15.77
2022-12-05T11:29:30.675Z,14.00
2022-12-05T11:30:32.295Z,11.60
2022-12-05T11:31:34.044Z,14.63
2022-12-05T11:32:35.693Z,16.05
2022-12-05T11:33:37.846Z,13.38
2022-12-05T11:34:47.575Z,21.98
2022-12-05T11:35:51.908Z,15.60
2022-12-05T11:36:58.263Z,11.23
2022-12-05T11:38:04.396Z,10.90
2022-12-05T11:39:06.019Z,11.88
2022-12-05T11:40:29.405Z,16.85
2022-12-05T11:42:01.293Z,19.23
2022-12-05T11:43:26.609Z,14.10
2022-12-05T11:44:55.674Z,18.10
2022-12-05T11:46:03.212Z,12.55
2022-12-05T11:47:19.100Z,11.70
2022-12-05T11:49:07.993Z,11.32
2022-12-05T11:50:20.742Z,14.82
2022-12-05T11:51:40.581Z,23.17
2022-12-05T11:53:14.055Z,17.13
2022-12-05T11:55:04.924Z,16.58
2022-12-05T11:56:27.904Z,23.50
2022-12-05T11:57:57.356Z,13.55
2022-12-05T11:59:01.736Z,14.32
2022-12-05T12:00:24.583Z,19.30
2022-12-05T12:01:52.571Z,14.80
2022-12-05T12:03:17.898Z,12.63
2022-12-05T12:04:54.116Z,16.75
2022-12-05T12:06:18.004Z,16.25
2022-12-05T12:07:28.325Z,14.27
2022-12-05T12:08:38.230Z,16.60
2022-12-05T12:10:09.824Z,10.10
2022-12-05T12:11:11.910Z,13.05
2022-12-05T12:12:21.987Z,14.77
2022-12-05T12:13:23.631Z,21.33
2022-12-05T12:14:48.128Z,18.58
2022-12-05T12:16:08.542Z,12.82
2022-12-05T12:17:41.184Z,11.45
2022-12-05T12:19:01.458Z,12.10
2022-12-05T12:20:27.982Z,14.27
2022-12-05T12:21:42.637Z,11.82
2022-12-05T12:23:21.714Z,14.43
2022-12-05T12:25:01.491Z,20.00
2022-12-05T12:26:09.151Z,12.07
2022-12-05T12:27:28.028Z,14.00
2022-12-05T12:29:04.587Z,12.15
2022-12-05T12:30:18.847Z,11.93
2022-12-05T12:32:00.655Z,11.05
2022-12-05T12:33:16.504Z,12.30
2022-12-05T12:34:49.468Z,12.43
2022-12-05T12:35:54.240Z,13.43
2022-12-05T12:37:09.568Z,11.88
2022-12-05T12:38:49.664Z,12.35
2022-12-05T12:40:12.246Z,11.93
2022-12-05T12:41:36.510Z,11.98
2022-12-05T12:42:47.407Z,12.82
2022-12-05T12:44:09.939Z,13.20
2022-12-05T12:45:34.838Z,15.30
2022-12-05T12:46:45.300Z,10.65
2022-12-05T12:47:52.762Z,14.77
2022-12-05T12:49:19.830Z,15.20
2022-12-05T12:50:31.910Z,12.07
2022-12-05T12:51:33.708Z,10.02
2022-12-05T12:52:54.009Z,11.68
2022-12-05T12:54:01.317Z,12.05
2022-12-05T12:55:19.133Z,12.85
2022-12-05T12:56:42.091Z,13.95
2022-12-05T12:57:49.661Z,12.05
2022-12-05T12:59:00.519Z,14.93
2022-12-05T13:00:12.627Z,15.38
2022-12-05T13:01:36.711Z,12.60
2022-12-05T13:02:53.056Z,13.05
2022-12-05T13:04:04.269Z,14.45
2022-12-05T13:05:19.585Z,10.80
2022-12-05T13:06:28.249Z,13.18
2022-12-05T13:07:52.289Z,13.20
2022-12-05T13:08:59.437Z,12.90
2022-12-05T13:10:27.007Z,18.50
2022-12-05T13:11:36.423Z,17.50
2022-12-05T13:12:40.930Z,15.23
2022-12-05T13:13:50.868Z,13.07
2022-12-05T13:15:01.149Z,18.90
2022-12-05T13:16:07.619Z,29.13
2022-12-05T13:17:17.322Z,14.88
2022-12-05T13:18:22.625Z,15.52
2022-12-05T13:19:37.901Z,16.77
2022-12-05T13:20:40.422Z,32.92
2022-12-05T13:21:42.233Z,21.00
2022-12-05T13:22:44.927Z,30.52
2022-12-05T13:23:53.131Z,18.75
2022-12-05T13:24:55.623Z,16.15
2022-12-05T13:26:00.570Z,24.35
2022-12-05T13:27:06.038Z,20.85
2022-12-05T13:28:28.321Z,18.00
2022-12-05T13:29:34.873Z,22.30
2022-12-05T13:30:56.532Z,16.42
2022-12-05T13:31:59.856Z,16.45
2022-12-05T13:33:06.966Z,16.95
2022-12-05T13:34:37.167Z,16.77
2022-12-05T13:35:57.785Z,17.38
2022-12-05T13:37:19.350Z,16.52
2022-12-05T13:38:50.318Z,18.73
2022-12-05T13:40:12.739Z,18.23
2022-12-05T13:41:34.194Z,16.95
2022-12-05T13:42:37.241Z,15.07
2022-12-05T13:43:51.067Z,16.02
2022-12-05T13:45:04.893Z,16.30
2022-12-05T13:46:07.820Z,19.23
2022-12-05T13:47:32.957Z,17.23
2022-12-05T13:48:40.079Z,20.15
2022-12-05T13:49:47.033Z,28.42
2022-12-05T13:51:05.483Z,18.17
2022-12-05T13:52:15.872Z,19.27
2022-12-05T13:53:39.569Z,19.15
2022-12-05T13:54:51.671Z,16.77
2022-12-05T13:56:06.241Z,24.05
2022-12-05T13:57:39.850Z,21.08
2022-12-05T13:58:53.766Z,19.30
2022-12-05T14:00:10.666Z,20.98
2022-12-05T14:01:28.067Z,21.15
2022-12-05T14:02:41.959Z,19.73
2022-12-05T14:03:51.916Z,20.35
2022-12-05T14:04:53.855Z,18.20
2022-12-05T14:05:55.559Z,18.90
2022-12-05T14:06:58.828Z,20.08
2022-12-05T14:08:03.844Z,22.25
2022-12-05T14:09:17.902Z,22.50
2022-12-05T14:10:28.376Z,17.20
2022-12-05T14:11:30.306Z,16.27
2022-12-05T14:12:51.040Z,22.70
2022-12-05T14:13:53.726Z,17.85
2022-12-05T14:14:58.119Z,17.58
2022-12-05T14:16:24.618Z,17.27
2022-12-05T14:17:29.959Z,18.40
2022-12-05T14:19:05.992Z,16.98
2022-12-05T14:20:45.513Z,17.73
2022-12-05T14:22:15.921Z,15.82
2022-12-05T14:23:17.560Z,18.25
2022-12-05T14:24:27.597Z,17.50
2022-12-05T14:25:58.941Z,17.23
2022-12-05T14:27:10.572Z,15.93
2022-12-05T14:28:45.068Z,18.30
2022-12-05T14:30:05.481Z,17.48
2022-12-05T14:31:27.933Z,19.40
2022-12-05T14:32:42.272Z,18.90
2022-12-05T14:33:43.934Z,17.40
2022-12-05T14:34:52.909Z,15.65
2022-12-05T14:35:54.588Z,19.90
2022-12-05T14:37:27.212Z,17.00
2022-12-05T14:38:30.770Z,24.77
2022-12-05T14:39:45.966Z,25.45
2022-12-05T14:40:48.158Z,38.38
2022-12-05T14:42:00.420Z,43.17
2022-12-05T14:43:17.091Z,29.75
2022-12-05T14:44:20.399Z,21.30
2022-12-05T14:45:47.972Z,20.10